Time;durP1;ratioP1;P1;durP2;ratioP2;P2;SDS_P1;SDS_P2;PMS_P1;PMS_P2;Temp;Humidity;BMP_temperature;BMP_pressure;BME280_temperature;BME280_humidity;BME280_pressure;Samples;Min_cycle;Max_cycle;Signal;HPM_P1;HPM_P2
2024/02/02 00:02:07;;;;;;;16.13;2.35;;;;;;;;;;5083160;28;20064;-80
2024/02/02 00:04:32;;;;;;;10.73;2.45;;;;;;;;;;5074228;28;20031;-80
2024/02/02 00:06:57;;;;;;;15.07;2.95;;;;;;;;;;5079807;28;20386;-79
2024/02/02 00:09:22;;;;;;;16.65;4.78;;;;;;;;;;5073816;28;20142;-79
2024/02/02 00:11:48;;;;;;;17.17;3.38;;;;;;;;;;5074395;28;20032;-79
2024/02/02 00:14:13;;;;;;;15.48;3.38;;;;;;;;;;5073028;28;20074;-78
2024/02/02 00:16:38;;;;;;;18.58;3.75;;;;;;;;;;5078890;28;20109;-78
2024/02/02 00:19:03;;;;;;;12.20;2.13;;;;;;;;;;5072907;28;20029;-78
2024/02/02 00:21:29;;;;;;;9.27;2.30;;;;;;;;;;5081551;28;20040;-78
2024/02/02 00:23:54;;;;;;;19.55;3.08;;;;;;;;;;5072594;28;20041;-78
2024/02/02 00:26:19;;;;;;;12.45;2.22;;;;;;;;;;5078051;28;20044;-78
2024/02/02 00:28:44;;;;;;;14.57;2.00;;;;;;;;;;5072885;28;20463;-78
2024/02/02 00:31:09;;;;;;;13.93;2.35;;;;;;;;;;5077914;28;20385;-78
2024/02/02 00:33:34;;;;;;;12.07;2.20;;;;;;;;;;5077300;28;20059;-78
2024/02/02 00:36:00;;;;;;;17.40;3.22;;;;;;;;;;5077606;28;20024;-79
2024/02/02 00:38:25;;;;;;;13.10;2.83;;;;;;;;;;5075908;28;20476;-78
2024/02/02 00:40:50;;;;;;;14.55;1.80;;;;;;;;;;5077547;28;20032;-78
2024/02/02 00:43:15;;;;;;;13.40;3.10;;;;;;;;;;5070921;28;20048;-78
2024/02/02 00:45:40;;;;;;;15.50;2.78;;;;;;;;;;5075025;28;20024;-78
2024/02/02 00:48:06;;;;;;;11.50;2.53;;;;;;;;;;5074746;28;20028;-78
2024/02/02 00:50:31;;;;;;;19.95;2.92;;;;;;;;;;5072198;28;20101;-78
2024/02/02 00:52:56;;;;;;;11.75;3.50;;;;;;;;;;5072104;28;20042;-78
2024/02/02 00:55:21;;;;;;;15.35;2.15;;;;;;;;;;5071750;28;20033;-78
2024/02/02 00:57:47;;;;;;;9.75;2.15;;;;;;;;;;5077209;28;20055;-78
2024/02/02 01:00:12;;;;;;;14.02;3.10;;;;;;;;;;5077978;28;20056;-79
2024/02/02 01:02:39;;;;;;;11.13;2.28;;;;;;;;;;5075482;28;20432;-78
2024/02/02 01:05:04;;;;;;;11.20;2.20;;;;;;;;;;5071628;28;20108;-78
2024/02/02 01:07:31;;;;;;;20.15;2.70;;;;;;;;;;5077695;28;20107;-79
2024/02/02 01:09:56;;;;;;;19.35;2.58;;;;;;;;;;5071052;28;20048;-79
2024/02/02 01:12:21;;;;;;;11.20;2.15;;;;;;;;;;5072294;28;20421;-79
2024/02/02 01:14:46;;;;;;;13.60;2.80;;;;;;;;;;5072156;28;20529;-79
2024/02/02 01:17:11;;;;;;;18.10;2.63;;;;;;;;;;5077430;28;20044;-79
2024/02/02 01:19:37;;;;;;;12.85;2.30;;;;;;;;;;5071813;28;20032;-79
2024/02/02 01:22:02;;;;;;;17.40;3.40;;;;;;;;;;5072124;28;20426;-80
2024/02/02 01:24:28;;;;;;;17.42;2.53;;;;;;;;;;5072065;28;20032;-80
2024/02/02 01:26:53;;;;;;;14.07;1.92;;;;;;;;;;5076999;28;20036;-80
2024/02/02 01:29:18;;;;;;;13.30;3.08;;;;;;;;;;5072190;28;20036;-80
2024/02/02 01:31:43;;;;;;;16.75;2.83;;;;;;;;;;5075089;28;20412;-80
2024/02/02 01:34:08;;;;;;;25.10;2.65;;;;;;;;;;5077687;28;20036;-79
2024/02/02 01:36:34;;;;;;;12.25;2.30;;;;;;;;;;5077071;28;20016;-79
2024/02/02 01:38:59;;;;;;;11.70;1.98;;;;;;;;;;5077860;28;20039;-79
2024/02/02 01:41:24;;;;;;;16.30;2.58;;;;;;;;;;5073315;28;20044;-79
2024/02/02 01:43:50;;;;;;;16.42;2.33;;;;;;;;;;5079984;28;20044;-79
2024/02/02 01:46:15;;;;;;;19.90;2.42;;;;;;;;;;5076578;28;20024;-80
2024/02/02 01:48:41;;;;;;;18.95;2.50;;;;;;;;;;5072027;28;20564;-80
2024/02/02 01:51:07;;;;;;;20.15;2.95;;;;;;;;;;5072225;28;20029;-80
2024/02/02 01:53:32;;;;;;;18.23;3.08;;;;;;;;;;5074736;28;20055;-78
2024/02/02 01:55:58;;;;;;;13.52;2.50;;;;;;;;;;5075807;28;20036;-78
2024/02/02 01:58:23;;;;;;;14.20;2.08;;;;;;;;;;5072896;28;20032;-78
2024/02/02 02:00:48;;;;;;;18.45;3.05;;;;;;;;;;5079791;28;20051;-78
2024/02/02 02:03:13;;;;;;;17.88;3.08;;;;;;;;;;5078081;28;20455;-79
2024/02/02 02:05:39;;;;;;;17.70;3.42;;;;;;;;;;5072467;28;20058;-78
2024/02/02 02:08:05;;;;;;;15.00;3.53;;;;;;;;;;5074547;28;20040;-77
2024/02/02 02:10:31;;;;;;;16.88;3.42;;;;;;;;;;5079578;28;20173;-78
2024/02/02 02:12:56;;;;;;;15.38;3.35;;;;;;;;;;5071561;28;20033;-79
2024/02/02 02:15:23;;;;;;;18.45;3.85;;;;;;;;;;5071543;28;20048;-79
2024/02/02 02:17:51;;;;;;;16.88;3.85;;;;;;;;;;5075653;28;20024;-79
2024/02/02 02:20:19;;;;;;;18.00;2.97;;;;;;;;;;5070925;28;20125;-79
2024/02/02 02:22:44;;;;;;;20.08;3.17;;;;;;;;;;5070696;28;20028;-78
2024/02/02 02:25:09;;;;;;;15.73;2.85;;;;;;;;;;5070605;28;20405;-78
2024/02/02 02:27:35;;;;;;;12.35;2.83;;;;;;;;;;5082597;28;20119;-78
2024/02/02 02:30:00;;;;;;;15.98;2.78;;;;;;;;;;5070805;28;20060;-79
2024/02/02 02:32:25;;;;;;;22.55;3.05;;;;;;;;;;5074935;28;20119;-78
2024/02/02 02:34:51;;;;;;;18.70;3.03;;;;;;;;;;5072818;28;20664;-78
2024/02/02 02:37:16;;;;;;;17.83;3.33;;;;;;;;;;5075010;28;20041;-79
2024/02/02 02:39:41;;;;;;;14.27;2.63;;;;;;;;;;5070927;28;20040;-78
2024/02/02 02:42:06;;;;;;;18.10;3.35;;;;;;;;;;5071212;28;20025;-78
2024/02/02 02:44:32;;;;;;;16.83;3.10;;;;;;;;;;5071041;28;20096;-78
2024/02/02 02:46:57;;;;;;;12.95;3.15;;;;;;;;;;5076071;28;20059;-78
2024/02/02 02:49:22;;;;;;;16.10;2.85;;;;;;;;;;5072286;28;20107;-78
2024/02/02 02:51:47;;;;;;;15.38;2.75;;;;;;;;;;5074102;28;20121;-79
2024/02/02 02:54:13;;;;;;;15.82;3.15;;;;;;;;;;5069335;28;20089;-78
2024/02/02 02:56:38;;;;;;;16.15;3.08;;;;;;;;;;5079572;28;20024;-79
2024/02/02 02:59:03;;;;;;;13.88;2.45;;;;;;;;;;5070743;28;20084;-79
2024/02/02 03:01:28;;;;;;;12.40;2.20;;;;;;;;;;5070468;28;20032;-79
2024/02/02 03:03:53;;;;;;;16.58;3.15;;;;;;;;;;5074528;28;20051;-79
2024/02/02 03:06:18;;;;;;;16.15;2.58;;;;;;;;;;5074093;28;20028;-79
2024/02/02 03:08:44;;;;;;;11.80;2.75;;;;;;;;;;5074731;28;20055;-79
2024/02/02 03:11:09;;;;;;;12.68;2.97;;;;;;;;;;5073799;28;20035;-79
2024/02/02 03:13:34;;;;;;;15.23;2.35;;;;;;;;;;5074092;28;20637;-78
2024/02/02 03:15:59;;;;;;;17.25;3.05;;;;;;;;;;5076991;28;20036;-78
2024/02/02 03:18:25;;;;;;;15.98;2.85;;;;;;;;;;5074600;28;20036;-78
2024/02/02 03:20:50;;;;;;;12.65;2.58;;;;;;;;;;5073818;28;20032;-79
2024/02/02 03:23:15;;;;;;;20.38;2.83;;;;;;;;;;5074035;28;20028;-79
2024/02/02 03:25:40;;;;;;;14.38;3.42;;;;;;;;;;5074275;28;20400;-79
2024/02/02 03:28:05;;;;;;;22.48;2.72;;;;;;;;;;5078109;28;20033;-79
2024/02/02 03:30:31;;;;;;;16.05;3.17;;;;;;;;;;5074767;28;20564;-79
2024/02/02 03:32:56;;;;;;;18.77;5.03;;;;;;;;;;5080098;28;20081;-79
2024/02/02 03:35:24;;;;;;;12.65;2.53;;;;;;;;;;5074763;28;20053;-78
2024/02/02 03:37:49;;;;;;;18.75;3.50;;;;;;;;;;5077431;28;20037;-78
2024/02/02 03:40:14;;;;;;;22.08;2.70;;;;;;;;;;5077755;28;20086;-79
2024/02/02 03:42:39;;;;;;;17.58;2.95;;;;;;;;;;5080633;28;20074;-79
2024/02/02 03:45:05;;;;;;;22.95;3.13;;;;;;;;;;5074019;28;20028;-78
2024/02/02 03:47:30;;;;;;;16.58;3.50;;;;;;;;;;5076846;28;20051;-79
2024/02/02 03:49:55;;;;;;;18.92;3.97;;;;;;;;;;5073836;28;20115;-80
2024/02/02 03:52:23;;;;;;;13.88;3.85;;;;;;;;;;5074406;28;20028;-79
2024/02/02 03:54:48;;;;;;;16.38;3.70;;;;;;;;;;5074267;28;20028;-79
2024/02/02 03:57:13;;;;;;;19.50;3.35;;;;;;;;;;5076907;28;20575;-79
2024/02/02 03:59:38;;;;;;;15.10;3.65;;;;;;;;;;5073254;28;20071;-78
2024/02/02 04:02:04;;;;;;;16.77;3.67;;;;;;;;;;5076875;28;20059;-78
2024/02/02 04:04:29;;;;;;;19.10;3.25;;;;;;;;;;5081002;28;20102;-79
2024/02/02 04:06:54;;;;;;;13.73;3.05;;;;;;;;;;5076425;28;20035;-79
2024/02/02 04:09:19;;;;;;;18.38;3.47;;;;;;;;;;5073456;28;20089;-79
2024/02/02 04:11:44;;;;;;;13.36;3.02;;;;;;;;;;5073548;28;20044;-79
2024/02/02 04:14:10;;;;;;;18.42;4.05;;;;;;;;;;5073281;28;20534;-79
2024/02/02 04:16:35;;;;;;;13.57;3.80;;;;;;;;;;5074048;28;20036;-79
2024/02/02 04:19:00;;;;;;;17.10;3.13;;;;;;;;;;5079650;28;20098;-79
2024/02/02 04:21:25;;;;;;;22.20;4.20;;;;;;;;;;5083648;28;20119;-79
2024/02/02 04:23:50;;;;;;;20.58;3.97;;;;;;;;;;5081507;28;20024;-79
2024/02/02 04:26:15;;;;;;;16.60;3.20;;;;;;;;;;5077273;28;20523;-79
2024/02/02 04:28:41;;;;;;;18.15;3.15;;;;;;;;;;5071645;28;20687;-79
2024/02/02 04:31:06;;;;;;;13.50;3.88;;;;;;;;;;5073346;28;20071;-79
2024/02/02 04:33:31;;;;;;;18.25;4.13;;;;;;;;;;5076609;28;20043;-79
2024/02/02 04:35:56;;;;;;;13.40;3.75;;;;;;;;;;5073890;28;20411;-78
2024/02/02 04:38:21;;;;;;;20.85;4.15;;;;;;;;;;5074365;28;20032;-79
2024/02/02 04:40:46;;;;;;;18.45;4.60;;;;;;;;;;5078229;28;20036;-79
2024/02/02 04:43:12;;;;;;;16.50;3.75;;;;;;;;;;5073786;28;20123;-79
2024/02/02 04:45:37;;;;;;;14.60;3.83;;;;;;;;;;5073492;28;20107;-79
2024/02/02 04:48:03;;;;;;;17.55;4.63;;;;;;;;;;5077331;28;20060;-79
2024/02/02 04:50:28;;;;;;;19.15;4.28;;;;;;;;;;5078653;28;20039;-79
2024/02/02 04:52:53;;;;;;;14.52;4.07;;;;;;;;;;5079883;28;20024;-79
2024/02/02 04:55:19;;;;;;;20.52;5.25;;;;;;;;;;5073819;28;20520;-79
2024/02/02 04:57:44;;;;;;;18.23;4.03;;;;;;;;;;5074537;28;20040;-79
2024/02/02 05:00:09;;;;;;;16.17;3.95;;;;;;;;;;5070415;28;20098;-79
2024/02/02 05:02:35;;;;;;;14.77;4.05;;;;;;;;;;5085455;28;20028;-80
2024/02/02 05:05:00;;;;;;;26.15;4.57;;;;;;;;;;5082897;28;20043;-79
2024/02/02 05:07:25;;;;;;;12.82;3.50;;;;;;;;;;5074580;28;20024;-79
2024/02/02 05:09:50;;;;;;;14.32;3.60;;;;;;;;;;5071980;28;20493;-79
2024/02/02 05:12:16;;;;;;;21.52;4.00;;;;;;;;;;5072092;28;20032;-79
2024/02/02 05:14:41;;;;;;;12.93;3.63;;;;;;;;;;5071813;28;20090;-79
2024/02/02 05:17:07;;;;;;;21.70;4.45;;;;;;;;;;5074492;28;20025;-80
2024/02/02 05:19:32;;;;;;;16.90;3.58;;;;;;;;;;5072101;28;20528;-79
2024/02/02 05:21:57;;;;;;;16.23;5.10;;;;;;;;;;5073493;28;20037;-78
2024/02/02 05:24:22;;;;;;;16.30;4.47;;;;;;;;;;5083475;28;20639;-79
2024/02/02 05:26:47;;;;;;;14.85;4.75;;;;;;;;;;5073343;28;20115;-78
2024/02/02 05:29:13;;;;;;;18.95;4.38;;;;;;;;;;5070861;28;20032;-79
2024/02/02 05:31:38;;;;;;;21.83;5.78;;;;;;;;;;5081600;28;20028;-78
2024/02/02 05:34:03;;;;;;;16.90;4.75;;;;;;;;;;5080207;28;20032;-79
2024/02/02 05:36:28;;;;;;;17.73;5.03;;;;;;;;;;5078751;28;21321;-79
2024/02/02 05:38:53;;;;;;;18.65;5.45;;;;;;;;;;5082089;28;20032;-79
2024/02/02 05:41:19;;;;;;;17.17;6.25;;;;;;;;;;5089049;28;20047;-79
2024/02/02 05:43:44;;;;;;;22.10;6.35;;;;;;;;;;5087700;28;20054;-79
2024/02/02 05:46:09;;;;;;;21.75;6.53;;;;;;;;;;5089952;28;20111;-78
2024/02/02 05:48:34;;;;;;;18.10;5.45;;;;;;;;;;5080582;28;20108;-79
2024/02/02 05:51:00;;;;;;;16.60;5.22;;;;;;;;;;5074006;28;20500;-79
2024/02/02 05:53:25;;;;;;;22.20;5.82;;;;;;;;;;5076092;28;20036;-78
2024/02/02 05:55:50;;;;;;;17.17;6.18;;;;;;;;;;5080307;28;20097;-79
2024/02/02 05:58:15;;;;;;;24.90;5.70;;;;;;;;;;5080037;28;20457;-79
2024/02/02 06:00:40;;;;;;;20.65;5.57;;;;;;;;;;5078670;28;20024;-79
2024/02/02 06:03:06;;;;;;;14.07;4.78;;;;;;;;;;5082106;28;20107;-79
2024/02/02 06:05:33;;;;;;;17.58;5.97;;;;;;;;;;5078494;28;20025;-79
2024/02/02 06:07:58;;;;;;;24.88;6.82;;;;;;;;;;5076561;28;20043;-79
2024/02/02 06:10:23;;;;;;;15.98;5.28;;;;;;;;;;5075007;28;20036;-79
2024/02/02 06:12:49;;;;;;;17.85;5.93;;;;;;;;;;5071152;28;20044;-79
2024/02/02 06:15:14;;;;;;;18.50;5.45;;;;;;;;;;5077406;28;20337;-79
2024/02/02 06:17:39;;;;;;;14.10;5.70;;;;;;;;;;5072330;28;20085;-79
2024/02/02 06:20:05;;;;;;;19.95;5.75;;;;;;;;;;5073750;28;20086;-78
2024/02/02 06:22:30;;;;;;;16.15;5.13;;;;;;;;;;5074606;28;20107;-79
2024/02/02 06:24:55;;;;;;;18.88;5.07;;;;;;;;;;5074823;28;20648;-79
2024/02/02 06:27:22;;;;;;;21.85;6.70;;;;;;;;;;5070279;28;20044;-79
2024/02/02 06:29:47;;;;;;;14.60;5.43;;;;;;;;;;5073616;28;20040;-78
2024/02/02 06:32:12;;;;;;;16.58;5.35;;;;;;;;;;5075399;28;20028;-79
2024/02/02 06:34:37;;;;;;;16.02;5.85;;;;;;;;;;5070784;28;20028;-79
2024/02/02 06:37:03;;;;;;;21.20;6.00;;;;;;;;;;5071833;28;20036;-79
2024/02/02 06:39:28;;;;;;;31.13;5.72;;;;;;;;;;5070750;28;20111;-78
2024/02/02 06:41:53;;;;;;;14.77;4.75;;;;;;;;;;5074849;28;20032;-78
2024/02/02 06:44:18;;;;;;;18.20;5.53;;;;;;;;;;5074753;28;20158;-78
2024/02/02 06:46:43;;;;;;;21.95;6.15;;;;;;;;;;5075400;28;20449;-79
2024/02/02 06:49:09;;;;;;;19.85;6.57;;;;;;;;;;5076554;28;20033;-79
2024/02/02 06:51:34;;;;;;;19.17;5.40;;;;;;;;;;5080116;28;20086;-78
2024/02/02 06:53:59;;;;;;;16.88;5.75;;;;;;;;;;5084116;28;20036;-79
2024/02/02 06:56:39;;;;;;;21.23;5.95;;;;;;;;;;5083747;28;20521;-78
2024/02/02 06:59:05;;;;;;;14.95;6.18;;;;;;;;;;5080973;28;20035;-79
2024/02/02 07:01:30;;;;;;;20.20;5.55;;;;;;;;;;5076902;28;20073;-79
2024/02/02 07:03:55;;;;;;;15.68;5.97;;;;;;;;;;5078995;28;20111;-78
2024/02/02 07:06:20;;;;;;;20.13;6.13;;;;;;;;;;5074813;28;20032;-78
2024/02/02 07:08:46;;;;;;;17.55;5.70;;;;;;;;;;5074748;28;20425;-78
2024/02/02 07:11:11;;;;;;;18.20;5.30;;;;;;;;;;5080613;28;20107;-78
2024/02/02 07:13:45;;;;;;;19.06;6.34;;;;;;;;;;5082296;28;20111;-79
2024/02/02 07:16:14;;;;;;;15.93;5.93;;;;;;;;;;5078622;28;20527;-78
2024/02/02 07:18:42;;;;;;;17.15;6.05;;;;;;;;;;5082481;28;20040;-79
2024/02/02 07:21:09;;;;;;;15.23;5.25;;;;;;;;;;5073878;28;20116;-78
2024/02/02 07:23:35;;;;;;;22.65;6.00;;;;;;;;;;5082553;28;20772;-79
2024/02/02 07:26:03;;;;;;;21.13;6.35;;;;;;;;;;5076926;28;20045;-79
2024/02/02 07:28:33;;;;;;;16.20;5.95;;;;;;;;;;5080533;28;20086;-79
2024/02/02 07:30:59;;;;;;;17.33;6.25;;;;;;;;;;5079733;28;20035;-78
2024/02/02 07:33:34;;;;;;;16.98;6.28;;;;;;;;;;5083803;28;20043;-79
2024/02/02 07:36:00;;;;;;;24.50;6.85;;;;;;;;;;5080660;28;20040;-78
2024/02/02 07:38:46;;;;;;;16.92;5.90;;;;;;;;;;5081043;28;20035;-78
2024/02/02 07:41:12;;;;;;;20.80;6.32;;;;;;;;;;5075453;28;20068;-79
2024/02/02 07:43:37;;;;;;;18.10;6.18;;;;;;;;;;5079872;28;20043;-79
2024/02/02 07:46:03;;;;;;;14.10;6.03;;;;;;;;;;5074560;28;20029;-78
2024/02/02 07:48:29;;;;;;;17.30;7.80;;;;;;;;;;5081606;28;20025;-79
2024/02/02 07:50:54;;;;;;;26.83;10.70;;;;;;;;;;5076944;28;20079;-79
2024/02/02 07:53:20;;;;;;;17.25;6.65;;;;;;;;;;5077609;28;20153;-78
2024/02/02 07:55:45;;;;;;;22.80;6.97;;;;;;;;;;5079594;28;20036;-79
2024/02/02 07:58:10;;;;;;;25.25;7.10;;;;;;;;;;5078467;28;20032;-78
2024/02/02 08:00:35;;;;;;;20.75;6.90;;;;;;;;;;5073254;28;21024;-78
2024/02/02 08:03:01;;;;;;;14.85;6.20;;;;;;;;;;5083063;28;20060;-79
2024/02/02 08:05:29;;;;;;;18.15;5.97;;;;;;;;;;5087867;28;20020;-78
2024/02/02 08:07:54;;;;;;;23.52;6.95;;;;;;;;;;5081356;28;20025;-79
2024/02/02 08:10:20;;;;;;;19.85;6.55;;;;;;;;;;5077109;28;20032;-79
2024/02/02 08:12:45;;;;;;;19.95;6.97;;;;;;;;;;5079807;28;20036;-79
2024/02/02 08:15:10;;;;;;;20.02;6.07;;;;;;;;;;5077457;28;20032;-79
2024/02/02 08:17:35;;;;;;;17.35;7.03;;;;;;;;;;5080203;28;20028;-79
2024/02/02 08:20:00;;;;;;;13.18;5.88;;;;;;;;;;5074521;28;20539;-79
2024/02/02 08:22:26;;;;;;;19.63;5.32;;;;;;;;;;5078815;28;20032;-80
2024/02/02 08:24:51;;;;;;;17.02;5.07;;;;;;;;;;5073638;28;20028;-79
2024/02/02 08:27:19;;;;;;;19.25;5.95;;;;;;;;;;5081012;28;20089;-80
2024/02/02 08:29:45;;;;;;;21.73;5.50;;;;;;;;;;5073270;28;20028;-79
2024/02/02 08:32:10;;;;;;;15.68;5.97;;;;;;;;;;5078227;28;20124;-80
2024/02/02 08:34:36;;;;;;;18.55;5.53;;;;;;;;;;5072927;28;20059;-80
2024/02/02 08:37:01;;;;;;;16.15;6.00;;;;;;;;;;5078026;28;20032;-79
2024/02/02 08:39:29;;;;;;;15.55;5.50;;;;;;;;;;5072508;28;20036;-79
2024/02/02 08:41:54;;;;;;;15.07;4.97;;;;;;;;;;5073155;28;20550;-79
2024/02/02 08:44:22;;;;;;;18.42;6.28;;;;;;;;;;5074105;28;20036;-79
2024/02/02 08:46:48;;;;;;;17.65;5.60;;;;;;;;;;5079703;28;20024;-79
2024/02/02 08:49:22;;;;;;;14.90;5.25;;;;;;;;;;5074793;28;20028;-80
2024/02/02 08:51:49;;;;;;;16.55;5.03;;;;;;;;;;5074341;28;20043;-80
2024/02/02 08:54:14;;;;;;;19.42;5.28;;;;;;;;;;5073496;28;20119;-79
2024/02/02 08:56:39;;;;;;;24.40;5.40;;;;;;;;;;5077179;28;20078;-79
2024/02/02 08:59:25;;;;;;;22.27;6.97;;;;;;;;;;5077848;28;20040;-79
2024/02/02 09:01:50;;;;;;;17.80;5.00;;;;;;;;;;5080154;28;20051;-79
2024/02/02 09:04:34;;;;;;;14.02;5.18;;;;;;;;;;5075619;28;20028;-79
2024/02/02 09:06:59;;;;;;;17.95;5.32;;;;;;;;;;5082349;28;20188;-79
2024/02/02 09:09:24;;;;;;;20.75;5.72;;;;;;;;;;5074353;28;20527;-79
2024/02/02 09:11:50;;;;;;;14.52;5.10;;;;;;;;;;5074184;28;20047;-79
2024/02/02 09:14:17;;;;;;;16.42;5.88;;;;;;;;;;5081670;28;20040;-80
2024/02/02 09:16:44;;;;;;;13.10;4.88;;;;;;;;;;5076694;28;20085;-79
2024/02/02 09:19:26;;;;;;;21.60;5.72;;;;;;;;;;5075374;28;20848;-79
2024/02/02 09:21:52;;;;;;;13.27;4.38;;;;;;;;;;5078025;28;20041;-80
2024/02/02 09:24:23;;;;;;;17.73;5.28;;;;;;;;;;5077135;28;20036;-80
2024/02/02 09:26:49;;;;;;;13.23;4.40;;;;;;;;;;5077241;28;20036;-79
2024/02/02 09:29:14;;;;;;;14.95;4.50;;;;;;;;;;5074852;28;20028;-80
2024/02/02 09:31:39;;;;;;;20.05;4.63;;;;;;;;;;5082719;28;20029;-79
2024/02/02 09:34:06;;;;;;;15.27;4.90;;;;;;;;;;5077645;28;20025;-79
2024/02/02 09:36:31;;;;;;;14.77;4.53;;;;;;;;;;5074529;28;20111;-80
2024/02/02 09:38:58;;;;;;;14.82;4.97;;;;;;;;;;5078729;28;20081;-80
2024/02/02 09:41:35;;;;;;;17.02;4.72;;;;;;;;;;5071565;28;20034;-80
2024/02/02 09:44:14;;;;;;;15.65;4.65;;;;;;;;;;5077618;28;20037;-79
2024/02/02 09:46:57;;;;;;;13.98;4.40;;;;;;;;;;5081729;28;20025;-79
2024/02/02 09:49:37;;;;;;;12.48;4.50;;;;;;;;;;5072736;28;20036;-80
2024/02/02 09:52:18;;;;;;;16.10;4.20;;;;;;;;;;5073629;28;20067;-80
2024/02/02 09:55:01;;;;;;;13.85;4.20;;;;;;;;;;5073242;28;20047;-79
2024/02/02 09:57:26;;;;;;;;;;;;;;;;;;5078211;28;20032;-80
2024/02/02 09:59:57;;;;;;;16.02;3.95;;;;;;;;;;5073712;28;19915;-79
2024/02/02 10:02:26;;;;;;;11.00;3.67;;;;;;;;;;5078465;28;20777;-80
2024/02/02 10:04:57;;;;;;;13.18;4.15;;;;;;;;;;5072719;28;20271;-80
2024/02/02 10:07:57;;;;;;;13.50;4.00;;;;;;;;;;5078394;28;20032;-80
2024/02/02 10:10:37;;;;;;;15.40;3.58;;;;;;;;;;5061410;28;20033;-79
2024/02/02 10:13:05;;;;;;;9.65;3.63;;;;;;;;;;5074093;28;20044;-79
2024/02/02 10:15:30;;;;;;;12.43;4.32;;;;;;;;;;5084080;28;20036;-79
2024/02/02 10:17:58;;;;;;;17.30;5.75;;;;;;;;;;5081264;28;20037;-80
2024/02/02 10:20:50;;;;;;;14.23;3.88;;;;;;;;;;5079105;28;20036;-80
2024/02/02 10:23:33;;;;;;;12.45;4.18;;;;;;;;;;5080367;28;20101;-80
2024/02/02 10:26:09;;;;;;;10.90;3.47;;;;;;;;;;5074677;28;20047;-80
2024/02/02 10:28:42;;;;;;;9.55;3.35;;;;;;;;;;5078788;28;20039;-80
2024/02/02 10:31:26;;;;;;;10.20;3.33;;;;;;;;;;5071074;28;20401;-80
2024/02/02 10:33:59;;;;;;;18.25;4.18;;;;;;;;;;5081178;28;20040;-80
2024/02/02 10:36:24;;;;;;;10.57;3.33;;;;;;;;;;5081057;28;20611;-80
2024/02/02 10:38:59;;;;;;;9.52;3.25;;;;;;;;;;5081804;28;20068;-79
2024/02/02 10:41:24;;;;;;;10.88;3.42;;;;;;;;;;5083909;28;20277;-80
2024/02/02 10:44:09;;;;;;;10.65;3.42;;;;;;;;;;5087138;28;20497;-80
2024/02/02 10:46:46;;;;;;;10.38;3.85;;;;;;;;;;5074712;28;20795;-79
2024/02/02 10:49:19;;;;;;;9.82;2.50;;;;;;;;;;5073107;28;20078;-80
2024/02/02 10:51:53;;;;;;;11.23;3.33;;;;;;;;;;5076998;28;20036;-80
2024/02/02 10:54:39;;;;;;;9.48;3.10;;;;;;;;;;5072842;28;20031;-80
2024/02/02 10:57:07;;;;;;;10.55;3.08;;;;;;;;;;5079788;28;20016;-80
2024/02/02 10:59:47;;;;;;;12.90;3.70;;;;;;;;;;5072701;28;20040;-79
2024/02/02 11:02:26;;;;;;;11.93;3.08;;;;;;;;;;5081556;28;20037;-81
2024/02/02 11:05:05;;;;;;;9.38;2.90;;;;;;;;;;5080016;28;20499;-80
2024/02/02 11:07:35;;;;;;;11.50;3.45;;;;;;;;;;5084947;28;20028;-80
2024/02/02 11:10:05;;;;;;;12.93;3.83;;;;;;;;;;5071955;28;20029;-80
2024/02/02 11:12:40;;;;;;;9.32;3.03;;;;;;;;;;5072006;28;20109;-80
2024/02/02 11:15:15;;;;;;;9.73;2.55;;;;;;;;;;5072541;28;20506;-81
2024/02/02 11:17:51;;;;;;;12.88;3.40;;;;;;;;;;5077484;28;20037;-79
2024/02/02 11:20:19;;;;;;;12.88;3.55;;;;;;;;;;5075370;28;20032;-79
2024/02/02 11:22:57;;;;;;;8.63;2.67;;;;;;;;;;5076882;28;20748;-79
2024/02/02 11:25:29;;;;;;;8.73;2.17;;;;;;;;;;5077274;28;20032;-79
2024/02/02 11:27:54;;;;;;;9.48;2.65;;;;;;;;;;5083144;28;20040;-79
2024/02/02 11:30:19;;;;;;;13.13;4.43;;;;;;;;;;5086171;28;20109;-80
2024/02/02 11:32:51;;;;;;;13.93;4.43;;;;;;;;;;5088704;28;20353;-79
2024/02/02 11:35:21;;;;;;;7.90;2.90;;;;;;;;;;5087861;28;20381;-80
2024/02/02 11:37:52;;;;;;;7.78;2.38;;;;;;;;;;5088459;28;20024;-79
2024/02/02 11:40:20;;;;;;;7.95;2.75;;;;;;;;;;5084632;28;20037;-80
2024/02/02 11:42:46;;;;;;;11.27;2.92;;;;;;;;;;5086080;28;20040;-80
2024/02/02 11:45:12;;;;;;;11.77;2.25;;;;;;;;;;5091944;28;20020;-79
2024/02/02 11:47:45;;;;;;;10.25;2.47;;;;;;;;;;5084513;28;20036;-79
2024/02/02 11:50:11;;;;;;;9.18;2.63;;;;;;;;;;5080604;28;20507;-80
2024/02/02 11:52:40;;;;;;;7.53;2.20;;;;;;;;;;5076926;28;20024;-80
2024/02/02 11:55:09;;;;;;;11.95;3.30;;;;;;;;;;5075416;28;20024;-79
2024/02/02 11:57:47;;;;;;;6.88;2.13;;;;;;;;;;5079530;28;20024;-79
2024/02/02 12:00:17;;;;;;;12.45;3.13;;;;;;;;;;5075281;28;20032;-80
2024/02/02 12:02:49;;;;;;;7.63;2.40;;;;;;;;;;5084728;28;20108;-80
2024/02/02 12:05:18;;;;;;;6.75;2.10;;;;;;;;;;5079507;28;20036;-81
2024/02/02 12:07:43;;;;;;;9.85;1.92;;;;;;;;;;5087383;28;20020;-80
2024/02/02 12:10:11;;;;;;;9.50;1.75;;;;;;;;;;5074697;28;20590;-80
2024/02/02 12:12:40;;;;;;;8.63;1.80;;;;;;;;;;5074908;28;20100;-80
2024/02/02 12:15:09;;;;;;;7.57;1.65;;;;;;;;;;5075856;28;20036;-80
2024/02/02 12:17:34;;;;;;;6.07;1.42;;;;;;;;;;5080952;28;20475;-80
2024/02/02 12:20:00;;;;;;;6.90;1.75;;;;;;;;;;5074320;28;20055;-80
2024/02/02 12:22:25;;;;;;;8.88;1.92;;;;;;;;;;5074050;28;20071;-80
2024/02/02 12:24:51;;;;;;;7.63;1.48;;;;;;;;;;5074539;28;20021;-79
2024/02/02 12:27:16;;;;;;;4.47;1.48;;;;;;;;;;5078552;28;20032;-80
2024/02/02 12:29:41;;;;;;;6.00;1.90;;;;;;;;;;5074416;28;20036;-80
2024/02/02 12:32:09;;;;;;;7.05;1.88;;;;;;;;;;5078747;28;20035;-80
2024/02/02 12:34:34;;;;;;;6.47;1.85;;;;;;;;;;5074459;28;20512;-80
2024/02/02 12:37:01;;;;;;;8.63;2.13;;;;;;;;;;5076716;28;20032;-80
2024/02/02 12:39:30;;;;;;;8.85;2.00;;;;;;;;;;5074330;28;20028;-80
2024/02/02 12:41:58;;;;;;;8.93;2.13;;;;;;;;;;5074043;28;20051;-80
2024/02/02 12:44:26;;;;;;;3.95;1.35;;;;;;;;;;5073805;28;20033;-80
2024/02/02 12:46:52;;;;;;;6.72;1.58;;;;;;;;;;5075175;28;20032;-79
2024/02/02 12:49:18;;;;;;;8.13;2.00;;;;;;;;;;5077086;28;20032;-79
2024/02/02 12:51:44;;;;;;;9.85;1.77;;;;;;;;;;5074328;28;20107;-79
2024/02/02 12:54:10;;;;;;;9.52;2.20;;;;;;;;;;5074172;28;20263;-79
2024/02/02 12:56:35;;;;;;;12.38;2.42;;;;;;;;;;5072636;28;20021;-79
2024/02/02 12:59:00;;;;;;;10.82;2.83;;;;;;;;;;5077998;28;20094;-79
2024/02/02 13:01:26;;;;;;;6.80;2.38;;;;;;;;;;5073806;28;20033;-80
2024/02/02 13:03:51;;;;;;;6.18;2.05;;;;;;;;;;5081417;28;20670;-79
2024/02/02 13:06:17;;;;;;;9.07;2.03;;;;;;;;;;5085277;28;20032;-80
2024/02/02 13:08:42;;;;;;;11.18;2.53;;;;;;;;;;5078097;28;20036;-80
2024/02/02 13:11:17;;;;;;;8.55;2.10;;;;;;;;;;5073942;28;20032;-79
2024/02/02 13:13:43;;;;;;;10.05;3.00;;;;;;;;;;5083981;28;20523;-79
2024/02/02 13:16:21;;;;;;;9.55;2.80;;;;;;;;;;5072392;28;20036;-79
2024/02/02 13:18:47;;;;;;;7.20;2.58;;;;;;;;;;5081136;28;20036;-79
2024/02/02 13:21:22;;;;;;;10.30;3.35;;;;;;;;;;5073409;28;20145;-79
2024/02/02 13:23:53;;;;;;;8.45;2.85;;;;;;;;;;5077330;28;20757;-79
2024/02/02 13:26:20;;;;;;;5.75;1.80;;;;;;;;;;5073608;28;20047;-80
2024/02/02 13:28:52;;;;;;;7.60;2.20;;;;;;;;;;5077559;28;20051;-79
2024/02/02 13:31:19;;;;;;;9.95;2.15;;;;;;;;;;5080565;28;20139;-80
2024/02/02 13:33:54;;;;;;;8.88;1.90;;;;;;;;;;5078996;28;20039;-79
2024/02/02 13:36:22;;;;;;;7.68;1.92;;;;;;;;;;5078685;28;20497;-79
2024/02/02 13:38:47;;;;;;;6.50;1.70;;;;;;;;;;5076677;28;20043;-79
2024/02/02 13:41:12;;;;;;;5.85;2.03;;;;;;;;;;5073281;28;20036;-79
2024/02/02 13:43:38;;;;;;;7.00;1.90;;;;;;;;;;5073247;28;20032;-79
2024/02/02 13:46:05;;;;;;;10.82;2.40;;;;;;;;;;5078703;28;20405;-79
2024/02/02 13:48:37;;;;;;;8.90;2.30;;;;;;;;;;5075808;28;20040;-80
2024/02/02 13:51:02;;;;;;;5.60;1.70;;;;;;;;;;5071919;28;20024;-80
2024/02/02 13:53:28;;;;;;;9.82;2.22;;;;;;;;;;5071056;28;20036;-80
2024/02/02 13:55:53;;;;;;;7.40;1.90;;;;;;;;;;5073033;28;20441;-79
2024/02/02 13:58:18;;;;;;;7.35;2.13;;;;;;;;;;5076195;28;20136;-80
2024/02/02 14:00:43;;;;;;;9.88;2.30;;;;;;;;;;5072584;28;20115;-79
2024/02/02 14:03:10;;;;;;;9.63;2.03;;;;;;;;;;5077693;28;20041;-80
2024/02/02 14:05:35;;;;;;;5.90;1.73;;;;;;;;;;5076148;28;20447;-79
2024/02/02 14:08:02;;;;;;;6.90;1.83;;;;;;;;;;5079391;28;20035;-79
2024/02/02 14:10:28;;;;;;;9.68;1.90;;;;;;;;;;5077474;28;20047;-79
2024/02/02 14:12:54;;;;;;;5.95;1.85;;;;;;;;;;5074957;28;20492;-78
2024/02/02 14:15:19;;;;;;;9.93;2.42;;;;;;;;;;5071882;28;20424;-79
2024/02/02 14:17:45;;;;;;;11.77;2.10;;;;;;;;;;5080901;28;20032;-78
2024/02/02 14:20:13;;;;;;;7.15;1.67;;;;;;;;;;5070579;28;20353;-78
2024/02/02 14:22:38;;;;;;;5.85;1.55;;;;;;;;;;5071097;28;20032;-78
2024/02/02 14:25:03;;;;;;;8.90;1.77;;;;;;;;;;5079807;28;20028;-78
2024/02/02 14:27:33;;;;;;;5.22;1.60;;;;;;;;;;5076903;28;20092;-79
2024/02/02 14:29:58;;;;;;;11.25;2.13;;;;;;;;;;5070563;28;20500;-78
2024/02/02 14:32:23;;;;;;;5.70;1.88;;;;;;;;;;5075593;28;20060;-79
2024/02/02 14:34:48;;;;;;;8.07;2.17;;;;;;;;;;5070626;28;20085;-78